createdAt,value
2022-08-17T00:00:00.417Z,6.18
2022-08-17T00:02:27.968Z,6.88
2022-08-17T00:04:56.113Z,6.55
2022-08-17T00:07:23.269Z,6.97
2022-08-17T00:09:50.309Z,6.90
2022-08-17T00:12:43.627Z,6.90
2022-08-17T00:15:05.299Z,7.20
2022-08-17T00:20:02.978Z,6.65
2022-08-17T00:22:33.653Z,7.13
2022-08-17T00:25:03.563Z,7.28
2022-08-17T00:27:30.959Z,6.95
2022-08-17T00:29:57.800Z,7.20
2022-08-17T00:33:13.797Z,7.18
2022-08-17T00:35:18.470Z,6.82
2022-08-17T00:37:47.838Z,7.43
2022-08-17T00:40:18.100Z,6.97
2022-08-17T00:42:46.884Z,7.22
2022-08-17T00:45:16.232Z,6.93
2022-08-17T00:47:44.120Z,7.43
2022-08-17T00:50:15.025Z,7.07
2022-08-17T00:52:52.333Z,6.88
2022-08-17T00:55:20.821Z,7.47
2022-08-17T00:57:55.199Z,7.47
2022-08-17T01:00:42.264Z,7.70
2022-08-17T01:03:15.021Z,6.97
2022-08-17T01:05:43.251Z,7.95
2022-08-17T01:08:17.929Z,7.22
2022-08-17T01:10:57.287Z,7.10
2022-08-17T01:13:30.259Z,7.55
2022-08-17T01:16:06.883Z,7.53
2022-08-17T01:18:36.893Z,7.50
2022-08-17T01:21:09.205Z,7.07
2022-08-17T01:23:40.374Z,7.82
2022-08-17T01:26:07.180Z,7.70
2022-08-17T01:28:53.965Z,7.35
2022-08-17T01:31:24.015Z,6.97
2022-08-17T01:33:53.469Z,7.22
2022-08-17T01:36:20.761Z,8.02
2022-08-17T01:38:47.716Z,7.40
2022-08-17T01:41:17.058Z,7.38
2022-08-17T01:43:53.975Z,7.50
2022-08-17T01:46:27.096Z,7.70
2022-08-17T01:48:55.362Z,7.45
2022-08-17T01:51:22.840Z,7.60
2022-08-17T01:53:53.328Z,7.20
2022-08-17T01:56:25.979Z,8.00
2022-08-17T01:58:53.246Z,7.85
2022-08-17T02:01:24.318Z,7.72
2022-08-17T02:03:53.194Z,6.90
2022-08-17T02:06:28.449Z,7.57
2022-08-17T02:09:02.464Z,7.90
2022-08-17T02:11:32.307Z,7.78
2022-08-17T02:14:03.929Z,7.40
2022-08-17T02:16:37.420Z,7.90
2022-08-17T02:19:11.345Z,7.90
2022-08-17T02:21:39.353Z,7.22
2022-08-17T02:26:37.287Z,7.85
2022-08-17T02:29:04.346Z,7.95
2022-08-17T02:31:31.318Z,7.53
2022-08-17T02:34:04.657Z,8.27
2022-08-17T02:36:34.204Z,8.52
2022-08-17T02:39:06.296Z,8.20
2022-08-17T02:41:33.852Z,8.15
2022-08-17T02:44:01.147Z,7.60
2022-08-17T02:46:28.399Z,8.05
2022-08-17T02:48:55.323Z,8.18
2022-08-17T02:51:22.940Z,8.25
2022-08-17T02:53:49.957Z,8.05
2022-08-17T02:56:21.430Z,8.05
2022-08-17T02:58:48.353Z,8.25
2022-08-17T03:01:15.338Z,8.35
2022-08-17T03:03:42.572Z,7.80
2022-08-17T03:06:10.342Z,8.37
2022-08-17T03:08:38.176Z,8.35
2022-08-17T03:11:05.451Z,7.97
2022-08-17T03:13:32.280Z,8.02
2022-08-17T03:15:59.162Z,7.95
2022-08-17T03:18:27.953Z,7.80
2022-08-17T03:20:57.609Z,8.68
2022-08-17T03:23:25.702Z,7.85
2022-08-17T03:25:54.075Z,7.47
2022-08-17T03:28:22.793Z,8.48
2022-08-17T03:30:51.259Z,8.82
2022-08-17T03:33:18.927Z,8.10
2022-08-17T03:35:46.033Z,7.65
2022-08-17T03:38:15.311Z,8.27
2022-08-17T03:40:56.437Z,8.70
2022-08-17T03:43:31.476Z,8.00
2022-08-17T03:46:34.114Z,7.97
2022-08-17T03:49:23.844Z,8.35
2022-08-17T03:52:09.753Z,8.20
2022-08-17T03:54:55.767Z,8.57
2022-08-17T03:57:23.183Z,8.40
2022-08-17T03:59:50.054Z,8.95
2022-08-17T04:02:24.299Z,8.27
2022-08-17T04:04:54.228Z,8.40
2022-08-17T04:07:22.742Z,8.55
2022-08-17T04:09:50.104Z,8.15
2022-08-17T04:12:19.237Z,8.57
2022-08-17T04:14:52.732Z,8.52
2022-08-17T04:17:22.259Z,8.82
2022-08-17T04:19:49.100Z,8.65
2022-08-17T04:22:30.292Z,9.32
2022-08-17T04:25:03.567Z,8.73
2022-08-17T04:27:32.491Z,8.68
2022-08-17T04:29:59.360Z,8.60
2022-08-17T04:33:00.591Z,9.02
2022-08-17T04:35:18.918Z,8.82
2022-08-17T04:37:45.752Z,9.20
2022-08-17T04:40:31.462Z,9.32
2022-08-17T04:43:18.785Z,9.30
2022-08-17T04:45:58.889Z,8.55
2022-08-17T04:48:35.969Z,8.88
2022-08-17T04:51:17.064Z,9.18
2022-08-17T04:53:54.197Z,9.15
2022-08-17T04:58:51.908Z,9.93
2022-08-17T05:01:24.146Z,9.00
2022-08-17T05:03:54.545Z,8.85
2022-08-17T05:06:26.193Z,8.95
2022-08-17T05:08:54.102Z,9.38
2022-08-17T05:16:19.278Z,10.00
2022-08-17T05:18:47.073Z,8.90
2022-08-17T05:21:15.413Z,9.65
2022-08-17T05:23:43.529Z,9.48
2022-08-17T05:26:25.805Z,9.20
2022-08-17T05:28:56.994Z,9.73
2022-08-17T05:31:25.459Z,9.05
2022-08-17T05:33:52.525Z,9.75
2022-08-17T05:36:42.985Z,9.75
2022-08-17T05:39:06.666Z,10.13
2022-08-17T05:41:33.474Z,10.27
2022-08-17T05:44:00.280Z,9.95
2022-08-17T05:46:37.377Z,10.48
2022-08-17T05:49:08.686Z,11.02
2022-08-17T05:52:06.164Z,9.98
2022-08-17T05:54:41.773Z,11.02
2022-08-17T05:57:43.527Z,9.95
2022-08-17T06:00:31.679Z,10.77
2022-08-17T06:03:24.531Z,10.43
2022-08-17T06:05:57.743Z,10.27
2022-08-17T06:08:57.644Z,10.48
2022-08-17T06:11:24.445Z,10.43
2022-08-17T06:14:09.991Z,10.68
2022-08-17T06:16:43.421Z,10.80
2022-08-17T06:19:21.063Z,10.30
2022-08-17T06:21:51.492Z,10.48
2022-08-17T06:24:34.253Z,11.07
2022-08-17T06:27:24.487Z,11.23
2022-08-17T06:29:56.783Z,10.55
2022-08-17T06:32:25.088Z,10.15
2022-08-17T06:34:52.529Z,10.68
2022-08-17T06:38:00.749Z,11.38
2022-08-17T06:40:56.330Z,11.18
2022-08-17T06:43:48.478Z,10.57
2022-08-17T06:46:35.863Z,10.80
2022-08-17T06:49:28.631Z,11.20
2022-08-17T06:52:07.953Z,10.98
2022-08-17T06:55:02.985Z,10.80
2022-08-17T06:57:33.321Z,11.30
2022-08-17T07:00:09.350Z,11.90
2022-08-17T07:03:14.032Z,10.93
2022-08-17T07:05:51.999Z,11.70
2022-08-17T07:11:13.793Z,11.50
2022-08-17T07:13:59.122Z,11.10
2022-08-17T07:16:48.566Z,11.43
2022-08-17T07:19:22.692Z,11.25
2022-08-17T07:22:01.637Z,11.25
2022-08-17T07:24:48.521Z,11.52
2022-08-17T07:27:17.338Z,11.30
2022-08-17T07:30:10.677Z,11.52
2022-08-17T07:32:57.366Z,11.55
2022-08-17T07:35:31.404Z,10.43
2022-08-17T07:38:24.820Z,10.75
2022-08-17T07:41:02.149Z,10.90
2022-08-17T07:43:41.669Z,11.63
2022-08-17T07:46:30.178Z,11.77
2022-08-17T07:48:59.174Z,11.32
2022-08-17T07:51:36.557Z,11.48
2022-08-17T07:54:26.901Z,12.38
2022-08-17T07:57:20.207Z,12.02
2022-08-17T08:00:16.297Z,11.02
2022-08-17T08:02:46.028Z,12.25
2022-08-17T08:05:49.536Z,11.10
2022-08-17T08:08:25.806Z,11.20
2022-08-17T08:11:08.193Z,12.07
2022-08-17T08:13:42.627Z,12.20
2022-08-17T08:16:29.606Z,11.13
2022-08-17T08:19:00.261Z,12.43
2022-08-17T08:22:10.152Z,12.05
2022-08-17T08:24:49.718Z,13.10
2022-08-17T08:27:27.697Z,12.90
2022-08-17T08:32:37.643Z,11.65
2022-08-17T08:35:31.521Z,12.50
2022-08-17T08:38:07.580Z,11.80
2022-08-17T08:40:56.011Z,12.65
2022-08-17T08:43:38.800Z,12.55
2022-08-17T08:46:35.391Z,12.15
2022-08-17T08:49:59.553Z,12.95
2022-08-17T08:52:45.087Z,16.45
2022-08-17T08:55:37.956Z,15.15
2022-08-17T08:58:31.343Z,14.80
2022-08-17T09:01:19.041Z,15.55
2022-08-17T09:04:23.432Z,16.13
2022-08-17T09:07:38.850Z,14.40
2022-08-17T09:10:29.881Z,15.98
2022-08-17T09:13:16.686Z,17.30
2022-08-17T09:15:51.933Z,17.80
2022-08-17T09:19:01.474Z,16.30
2022-08-17T09:21:28.933Z,16.48
2022-08-17T09:24:20.781Z,15.13
2022-08-17T09:27:40.699Z,14.18
2022-08-17T09:30:11.424Z,15.18
2022-08-17T09:32:46.122Z,16.80
2022-08-17T09:35:36.982Z,18.05
2022-08-17T09:38:42.313Z,18.10
2022-08-17T09:41:20.762Z,18.25
2022-08-17T09:44:23.103Z,16.30
2022-08-17T09:46:55.913Z,14.63
2022-08-17T09:49:46.908Z,14.35
2022-08-17T09:52:27.879Z,14.85
2022-08-17T09:54:57.123Z,15.43
2022-08-17T09:57:31.387Z,17.20
2022-08-17T10:00:25.223Z,17.27
2022-08-17T10:03:14.788Z,16.75
2022-08-17T10:06:21.800Z,17.17
2022-08-17T10:09:14.017Z,16.60
2022-08-17T10:12:29.830Z,16.17
2022-08-17T10:15:27.705Z,16.80
2022-08-17T10:17:57.675Z,18.58
2022-08-17T10:21:12.461Z,18.77
2022-08-17T10:23:59.035Z,19.42
2022-08-17T10:26:28.186Z,17.90
2022-08-17T10:29:19.763Z,17.38
2022-08-17T10:31:56.167Z,17.27
2022-08-17T10:34:40.427Z,17.20
2022-08-17T10:37:38.316Z,17.40
2022-08-17T10:40:19.701Z,16.70
2022-08-17T10:42:57.353Z,17.67
2022-08-17T10:45:37.825Z,17.13
2022-08-17T10:48:08.579Z,16.52
2022-08-17T10:50:55.787Z,16.58
2022-08-17T10:53:51.052Z,16.65
2022-08-17T10:56:21.809Z,15.63
2022-08-17T10:58:54.063Z,16.15
2022-08-17T11:01:35.455Z,16.92
2022-08-17T11:04:17.676Z,17.25
2022-08-17T11:06:51.166Z,16.35
2022-08-17T11:09:30.300Z,15.25
2022-08-17T11:12:24.199Z,16.48
2022-08-17T11:14:50.977Z,17.33
2022-08-17T11:17:38.908Z,16.90
2022-08-17T11:20:21.114Z,16.02
2022-08-17T11:23:03.846Z,15.68
2022-08-17T11:25:46.948Z,13.55
2022-08-17T11:28:26.699Z,13.82
2022-08-17T11:31:06.323Z,12.52
2022-08-17T11:33:36.712Z,12.32
2022-08-17T11:36:33.130Z,13.45
2022-08-17T11:39:24.888Z,50.90
2022-08-17T11:42:11.724Z,49.60
2022-08-17T11:44:44.514Z,44.20
2022-08-17T11:47:35.004Z,48.60
2022-08-17T11:50:32.311Z,45.00
2022-08-17T11:53:01.252Z,45.03
2022-08-17T11:55:38.546Z,36.08
2022-08-17T11:58:29.564Z,32.60
2022-08-17T12:01:00.946Z,30.90
2022-08-17T12:03:34.057Z,32.35
2022-08-17T12:06:31.070Z,31.52
2022-08-17T12:09:09.658Z,26.65
2022-08-17T12:12:12.445Z,18.25
2022-08-17T12:15:16.458Z,23.05
2022-08-17T12:17:41.364Z,19.33
2022-08-17T12:20:35.362Z,17.30
2022-08-17T12:23:56.641Z,11.65
2022-08-17T12:26:30.492Z,16.10
2022-08-17T12:29:39.039Z,21.58
2022-08-17T12:31:55.432Z,15.50
2022-08-17T12:34:29.786Z,11.63
2022-08-17T12:37:02.210Z,16.55
2022-08-17T12:39:30.579Z,12.82
2022-08-17T12:42:02.759Z,12.82
2022-08-17T12:44:36.182Z,9.50
2022-08-17T12:47:23.241Z,10.20
2022-08-17T12:49:52.765Z,10.95
2022-08-17T12:52:28.806Z,8.35
2022-08-17T12:55:02.383Z,7.70
2022-08-17T12:57:37.973Z,8.63
2022-08-17T13:00:25.790Z,9.38
2022-08-17T13:02:54.754Z,8.85
2022-08-17T13:05:36.047Z,8.15
2022-08-17T13:08:14.519Z,8.25
2022-08-17T13:10:41.736Z,7.85
2022-08-17T13:13:26.358Z,7.72
2022-08-17T13:15:58.658Z,8.73
2022-08-17T13:18:48.560Z,8.65
2022-08-17T13:21:23.893Z,8.10
2022-08-17T13:24:01.875Z,8.00
2022-08-17T13:26:45.334Z,7.90
2022-08-17T13:29:35.271Z,8.65
2022-08-17T13:32:13.506Z,8.18
2022-08-17T13:34:55.073Z,7.78
2022-08-17T13:37:34.844Z,7.82
2022-08-17T13:40:23.819Z,7.53
2022-08-17T13:42:58.710Z,7.40
2022-08-17T13:45:39.166Z,7.72
2022-08-17T13:48:13.593Z,6.75
2022-08-17T13:50:59.533Z,6.68
2022-08-17T13:53:33.302Z,6.53
2022-08-17T13:56:33.363Z,7.25
2022-08-17T13:59:01.967Z,7.20
2022-08-17T14:01:47.471Z,8.10
2022-08-17T14:04:31.588Z,6.97
2022-08-17T14:07:13.741Z,7.53
2022-08-17T14:09:48.998Z,6.85
2022-08-17T14:12:19.810Z,8.32
2022-08-17T14:14:50.085Z,8.18
2022-08-17T14:17:19.073Z,8.27
2022-08-17T14:19:45.882Z,7.78
2022-08-17T14:22:43.414Z,8.77
2022-08-17T14:25:12.509Z,8.13
2022-08-17T14:27:52.614Z,9.07
2022-08-17T14:30:29.964Z,9.00
2022-08-17T14:32:58.513Z,9.05
2022-08-17T14:35:27.838Z,9.70
2022-08-17T14:37:54.822Z,9.70
2022-08-17T14:40:24.981Z,8.20
2022-08-17T14:42:53.345Z,8.57
2022-08-17T14:45:30.249Z,8.80
2022-08-17T14:48:01.559Z,8.40
2022-08-17T14:50:28.865Z,8.52
2022-08-17T14:53:01.319Z,8.88
2022-08-17T14:55:29.759Z,7.70
2022-08-17T14:57:57.018Z,8.85
2022-08-17T15:00:26.906Z,7.90
2022-08-17T15:02:58.494Z,8.13
2022-08-17T15:05:31.405Z,9.10
2022-08-17T15:07:59.292Z,8.00
2022-08-17T15:12:53.808Z,8.23
2022-08-17T15:15:20.765Z,8.00
2022-08-17T15:17:51.675Z,7.70
2022-08-17T15:20:25.308Z,8.13
2022-08-17T15:22:55.903Z,7.43
2022-08-17T15:25:28.773Z,8.02
2022-08-17T15:27:56.020Z,7.53
2022-08-17T15:30:24.107Z,7.70
2022-08-17T15:32:55.340Z,8.27
2022-08-17T15:35:28.737Z,7.82
2022-08-17T15:38:11.181Z,7.90
2022-08-17T15:40:42.313Z,7.75
2022-08-17T15:43:16.009Z,8.07
2022-08-17T15:45:43.896Z,7.88
2022-08-17T15:50:45.167Z,7.05
2022-08-17T15:53:14.398Z,8.02
2022-08-17T15:55:42.053Z,7.90
2022-08-17T15:58:09.881Z,8.10
2022-08-17T16:03:57.402Z,8.15
2022-08-17T16:06:16.600Z,8.68
2022-08-17T16:08:47.259Z,8.13
2022-08-17T16:11:16.006Z,9.65
2022-08-17T16:13:51.296Z,10.07
2022-08-17T16:16:24.809Z,10.98
2022-08-17T16:18:53.541Z,9.18
2022-08-17T16:21:29.570Z,10.18
2022-08-17T16:24:05.124Z,8.45
2022-08-17T16:26:39.945Z,8.65
2022-08-17T16:29:07.918Z,8.40
2022-08-17T16:31:37.890Z,8.40
2022-08-17T16:34:17.372Z,10.60
2022-08-17T16:36:56.190Z,11.60
2022-08-17T16:39:29.138Z,11.07
2022-08-17T16:41:57.174Z,11.43
2022-08-17T16:44:28.950Z,11.35
2022-08-17T16:47:00.794Z,11.55
2022-08-17T16:49:37.249Z,11.93
2022-08-17T16:52:11.833Z,11.02
2022-08-17T16:54:43.466Z,11.88
2022-08-17T16:57:11.922Z,11.30
2022-08-17T16:59:42.668Z,11.60
2022-08-17T17:02:14.458Z,12.10
2022-08-17T17:04:51.795Z,10.68
2022-08-17T17:07:40.464Z,11.18
2022-08-17T17:10:20.793Z,12.57
2022-08-17T17:13:02.163Z,13.60
2022-08-17T17:15:57.453Z,14.57
2022-08-17T17:18:39.172Z,15.25
2022-08-17T17:21:12.810Z,17.25
2022-08-17T17:24:09.977Z,19.70
2022-08-17T17:26:58.001Z,17.80
2022-08-17T17:29:47.482Z,20.92
2022-08-17T17:32:50.644Z,20.08
2022-08-17T17:35:32.974Z,21.35
2022-08-17T17:38:06.255Z,21.55
2022-08-17T17:40:46.272Z,20.38
2022-08-17T17:43:37.811Z,20.98
2022-08-17T17:46:28.237Z,19.77
2022-08-17T17:48:57.920Z,25.33
2022-08-17T17:52:07.874Z,23.20
2022-08-17T17:54:39.861Z,21.20
2022-08-17T17:57:26.679Z,21.92
2022-08-17T18:00:11.657Z,25.90
2022-08-17T18:03:07.877Z,27.20
2022-08-17T18:06:13.246Z,23.13
2022-08-17T18:08:57.267Z,20.13
2022-08-17T18:11:34.925Z,23.00
2022-08-17T18:14:17.739Z,21.35
2022-08-17T18:16:46.274Z,27.75
2022-08-17T18:19:21.480Z,23.90
2022-08-17T18:22:19.761Z,23.98
2022-08-17T18:24:54.027Z,28.70
2022-08-17T18:27:25.909Z,24.92
2022-08-17T18:29:55.619Z,27.95
2022-08-17T18:32:22.891Z,28.02
2022-08-17T18:35:04.677Z,28.13
2022-08-17T18:37:50.512Z,30.23
2022-08-17T18:40:19.939Z,28.38
2022-08-17T18:42:59.636Z,30.20
2022-08-17T18:45:43.651Z,31.65
2022-08-17T18:48:28.520Z,31.02
2022-08-17T18:51:05.224Z,29.65
2022-08-17T18:53:41.362Z,30.10
2022-08-17T18:56:20.669Z,32.13
2022-08-17T18:59:21.607Z,36.30
2022-08-17T19:02:23.188Z,37.95
2022-08-17T19:05:07.244Z,34.70
2022-08-17T19:07:36.860Z,37.42
2022-08-17T19:10:22.427Z,37.55
2022-08-17T19:12:49.801Z,36.25
2022-08-17T19:15:23.043Z,37.05
2022-08-17T19:18:02.766Z,33.38
2022-08-17T19:20:35.738Z,33.83
2022-08-17T19:23:11.307Z,30.05
2022-08-17T19:25:44.602Z,38.47
2022-08-17T19:28:27.733Z,34.63
2022-08-17T19:31:01.957Z,31.38
2022-08-17T19:33:31.347Z,29.58
2022-08-17T19:36:40.395Z,29.92
2022-08-17T19:39:13.842Z,27.35
2022-08-17T19:42:02.723Z,26.85
2022-08-17T19:44:54.556Z,28.40
2022-08-17T19:47:54.376Z,30.58
2022-08-17T19:50:41.358Z,28.40
2022-08-17T19:54:01.416Z,26.83
2022-08-17T19:56:54.547Z,30.80
2022-08-17T19:59:49.375Z,25.63
2022-08-17T20:02:23.589Z,28.33
2022-08-17T20:04:57.475Z,24.58
2022-08-17T20:07:43.849Z,25.52
2022-08-17T20:10:45.147Z,26.35
2022-08-17T20:13:36.786Z,23.98
2022-08-17T20:16:03.994Z,22.27
2022-08-17T20:18:36.640Z,22.40
2022-08-17T20:21:25.845Z,25.10
2022-08-17T20:24:16.360Z,23.83
2022-08-17T20:26:55.525Z,23.73
2022-08-17T20:29:52.452Z,22.02
2022-08-17T20:32:26.125Z,23.25
2022-08-17T20:35:17.953Z,24.88
2022-08-17T20:38:12.816Z,25.35
2022-08-17T20:40:54.992Z,23.45
2022-08-17T20:43:35.556Z,23.92
2022-08-17T20:46:27.592Z,23.23
2022-08-17T20:48:59.257Z,24.80
2022-08-17T20:51:31.509Z,23.23
2022-08-17T20:54:06.645Z,24.45
2022-08-17T20:56:46.790Z,23.77
2022-08-17T20:59:25.779Z,25.50
2022-08-17T21:02:18.961Z,24.70
2022-08-17T21:04:54.893Z,25.65
2022-08-17T21:07:40.000Z,24.55
2022-08-17T21:10:16.377Z,23.50
2022-08-17T21:13:04.415Z,20.23
2022-08-17T21:15:47.432Z,22.33
2022-08-17T21:18:20.843Z,22.42
2022-08-17T21:21:02.048Z,22.50
2022-08-17T21:24:00.196Z,22.48
2022-08-17T21:26:52.009Z,25.38
2022-08-17T21:29:32.562Z,25.63
2022-08-17T21:32:03.408Z,25.65
2022-08-17T21:34:36.416Z,24.73
2022-08-17T21:37:26.003Z,23.35
2022-08-17T21:40:03.530Z,19.35
2022-08-17T21:42:38.433Z,23.23
2022-08-17T21:45:31.764Z,14.50
2022-08-17T21:48:20.528Z,23.80
2022-08-17T21:51:10.478Z,22.08
2022-08-17T21:53:44.705Z,26.13
2022-08-17T21:56:19.506Z,24.95
2022-08-17T21:58:48.559Z,23.33
2022-08-17T22:01:26.100Z,24.63
2022-08-17T22:04:08.616Z,29.05
2022-08-17T22:06:52.654Z,25.08
2022-08-17T22:09:34.495Z,27.30
2022-08-17T22:12:12.971Z,27.15
2022-08-17T22:15:04.203Z,27.42
2022-08-17T22:17:45.162Z,28.45
2022-08-17T22:20:18.772Z,30.65
2022-08-17T22:23:04.017Z,27.17
2022-08-17T22:25:34.252Z,28.50
2022-08-17T22:28:06.097Z,26.17
2022-08-17T22:30:33.511Z,27.75
2022-08-17T22:33:15.852Z,28.42
2022-08-17T22:35:44.518Z,28.52
2022-08-17T22:38:23.754Z,26.58
2022-08-17T22:40:56.742Z,27.10
2022-08-17T22:43:26.766Z,26.73
2022-08-17T22:45:57.301Z,24.77
2022-08-17T22:48:28.385Z,26.65
2022-08-17T22:51:13.808Z,27.73
2022-08-17T22:54:31.758Z,28.73
2022-08-17T22:57:22.428Z,25.52
2022-08-17T22:59:56.043Z,26.60
2022-08-17T23:02:34.666Z,26.13
2022-08-17T23:05:10.761Z,28.38
2022-08-17T23:07:43.410Z,27.98
2022-08-17T23:10:11.944Z,28.60
2022-08-17T23:12:39.661Z,28.05
2022-08-17T23:15:14.357Z,25.50
2022-08-17T23:17:42.049Z,26.30
2022-08-17T23:20:13.251Z,27.38
2022-08-17T23:22:51.425Z,25.35
2022-08-17T23:25:26.435Z,26.80
2022-08-17T23:27:53.993Z,28.52
2022-08-17T23:30:25.564Z,27.67
2022-08-17T23:32:54.367Z,29.67
2022-08-17T23:35:40.065Z,29.02
2022-08-17T23:38:11.927Z,27.90
2022-08-17T23:40:39.964Z,26.25
2022-08-17T23:45:57.537Z,24.98
2022-08-17T23:48:35.227Z,25.73
2022-08-17T23:51:17.371Z,25.85
2022-08-17T23:53:48.153Z,24.35
2022-08-17T23:56:23.865Z,24.90
2022-08-17T23:58:53.286Z,24.02
